TimeEST,TemperatureF,Dew PointF,Humidity,Sea Level PressureIn,VisibilityMPH,Wind Direction,Wind SpeedMPH,Gust SpeedMPH,PrecipitationIn,Events,Conditions,WindDirDegrees,DateUTC
12:56 AM,30.9,21.9,69,29.76,10.0,East,13.8,-,N/A,,Clear,100,2013-03-06 05:56:00
1:56 AM,30.9,21.9,69,29.76,10.0,East,12.7,23.0,N/A,,Clear,100,2013-03-06 06:56:00
2:56 AM,32.0,21.9,66,29.75,10.0,East,13.8,25.3,N/A,,Mostly Cloudy,90,2013-03-06 07:56:00
3:56 AM,30.9,21.9,69,29.76,10.0,East,13.8,20.7,N/A,,Partly Cloudy,90,2013-03-06 08:56:00
4:29 AM,30.2,21.2,69,29.73,10.0,East,11.5,19.6,N/A,,Mostly Cloudy,100,2013-03-06 09:29:00
4:56 AM,30.9,21.9,69,29.78,10.0,East,10.4,-,N/A,,Overcast,90,2013-03-06 09:56:00
5:56 AM,30.9,21.9,69,29.81,10.0,East,13.8,20.7,N/A,,Overcast,90,2013-03-06 10:56:00
6:56 AM,30.9,23.0,72,29.83,10.0,East,11.5,18.4,N/A,,Overcast,80,2013-03-06 11:56:00
7:56 AM,30.9,23.0,72,29.87,10.0,East,13.8,19.6,N/A,,Overcast,80,2013-03-06 12:56:00
9:56 AM,32.0,24.1,73,29.92,10.0,NE,13.8,20.7,N/A,,Overcast,40,2013-03-06 14:56:00
10:56 AM,33.1,24.1,70,29.95,10.0,NE,15.0,20.7,N/A,,Overcast,50,2013-03-06 15:56:00
11:54 AM,33.8,24.8,70,29.92,10.0,NE,13.8,-,N/A,,Overcast,40,2013-03-06 16:54:00
11:56 AM,34.0,24.1,67,29.96,10.0,NE,10.4,-,N/A,,Overcast,40,2013-03-06 16:56:00
12:56 PM,35.1,23.0,61,29.97,10.0,NE,11.5,-,N/A,,Overcast,40,2013-03-06 17:56:00
1:56 PM,35.1,23.0,61,29.98,10.0,NE,10.4,-,N/A,,Overcast,40,2013-03-06 18:56:00
2:56 PM,36.0,21.9,57,29.98,10.0,NNE,11.5,-,N/A,,Overcast,20,2013-03-06 19:56:00
3:56 PM,36.0,21.9,57,30.00,10.0,ENE,6.9,-,N/A,,Overcast,60,2013-03-06 20:56:00
4:56 PM,36.0,23.0,59,30.01,10.0,North,9.2,-,N/A,,Overcast,10,2013-03-06 21:56:00
5:56 PM,36.0,23.0,59,30.05,10.0,NNE,6.9,-,N/A,,Overcast,20,2013-03-06 22:56:00
6:56 PM,35.1,21.9,59,30.06,10.0,North,4.6,-,N/A,,Overcast,360,2013-03-06 23:56:00
7:56 PM,35.1,23.0,61,30.06,10.0,NNE,5.8,-,N/A,,Overcast,20,2013-03-07 00:56:00
8:56 PM,34.0,23.0,64,30.08,10.0,North,3.5,-,N/A,,Overcast,350,2013-03-07 01:56:00
9:56 PM,34.0,24.1,67,30.09,10.0,Calm,Calm,-,N/A,,Overcast,0,2013-03-07 02:56:00
10:56 PM,33.1,26.1,75,30.09,10.0,North,5.8,-,N/A,,Overcast,10,2013-03-07 03:56:00
11:56 PM,33.1,26.1,75,30.09,10.0,North,4.6,-,N/A,,Overcast,360,2013-03-07 04:56:00